METAR Data
IDs: Format: Raw Decoded Include TAF

Data at: 0603 UTC 26 May 2022

EDAC 260550Z AUTO 22008KT 9999 // FEW043/// BKN097/// 15/08 Q1018